Time;durP1;ratioP1;P1;durP2;ratioP2;P2;SDS_P1;SDS_P2;PMS_P1;PMS_P2;Temp;Humidity;BMP_temperature;BMP_pressure;BME280_temperature;BME280_humidity;BME280_pressure;Samples;Min_cycle;Max_cycle;Signal;HPM_P1;HPM_P2
2020/12/02 00:01:34;;;;;;;3.28;1.63;;;;;;;17.43;57.48;102265.94;4831018;29;20118;-79
2020/12/02 00:04:06;;;;;;;3.33;1.90;;;;;;;17.42;57.20;102267.66;4815837;29;20033;-79
2020/12/02 00:06:33;;;;;;;4.40;1.98;;;;;;;17.43;57.61;102268.53;4845724;29;20037;-79
2020/12/02 00:09:16;;;;;;;2.83;1.70;;;;;;;17.43;57.57;102259.00;4830990;29;20116;-79
2020/12/02 00:11:41;;;;;;;4.63;2.17;;;;;;;17.43;57.61;102255.53;4862650;29;20076;-79
2020/12/02 00:14:13;;;;;;;3.47;1.90;;;;;;;17.43;57.41;102264.19;4850103;29;20081;-79
2020/12/02 00:16:38;;;;;;;4.88;2.20;;;;;;;17.42;57.44;102267.66;4847036;29;20100;-79
2020/12/02 00:19:05;;;;;;;2.45;1.60;;;;;;;17.42;57.32;102254.66;4846238;29;20037;-79
2020/12/02 00:21:32;;;;;;;2.78;1.83;;;;;;;17.42;57.46;102254.66;4848489;29;20070;-79
2020/12/02 00:23:59;;;;;;;2.75;1.52;;;;;;;17.42;57.32;102265.06;4845366;29;20040;-79
2020/12/02 00:26:25;;;;;;;3.25;1.70;;;;;;;17.42;57.20;102265.06;4852509;29;20037;-79
2020/12/02 00:28:52;;;;;;;2.47;1.60;;;;;;;17.42;57.41;102266.78;4846721;29;20120;-79
2020/12/02 00:31:18;;;;;;;3.72;1.50;;;;;;;17.42;57.23;102271.97;4845835;29;20055;-79
2020/12/02 00:33:45;;;;;;;2.40;1.55;;;;;;;17.41;57.02;102268.50;4830459;29;20037;-79
2020/12/02 00:36:10;;;;;;;2.60;1.60;;;;;;;17.39;57.08;102265.00;4848523;29;20042;-79
2020/12/02 00:38:36;;;;;;;2.63;1.60;;;;;;;17.39;57.41;102269.34;4830318;29;20045;-79
2020/12/02 00:41:01;;;;;;;2.72;1.70;;;;;;;17.41;57.12;102267.63;4826981;29;20076;-79
2020/12/02 00:43:28;;;;;;;3.05;1.50;;;;;;;17.40;57.06;102263.31;4840515;29;20038;-79
2020/12/02 00:45:56;;;;;;;3.13;1.73;;;;;;;17.40;56.70;102266.78;4839568;29;20033;-79
2020/12/02 00:48:23;;;;;;;3.17;1.50;;;;;;;17.40;56.89;102264.16;4848833;29;20097;-79
2020/12/02 00:50:49;;;;;;;3.47;1.65;;;;;;;17.40;56.97;102264.16;4844936;29;20116;-79
2020/12/02 00:53:18;;;;;;;4.97;1.80;;;;;;;17.39;57.01;102269.34;4855732;29;20548;-79
2020/12/02 00:55:45;;;;;;;2.63;1.60;;;;;;;17.38;56.88;102268.47;4858753;29;20060;-80
2020/12/02 00:58:15;;;;;;;2.35;1.50;;;;;;;17.40;57.05;102263.31;4844749;29;20068;-80
2020/12/02 01:00:41;;;;;;;3.00;1.60;;;;;;;17.39;57.16;102259.81;4844820;29;20045;-79
2020/12/02 01:03:34;;;;;;;3.45;1.75;;;;;;;17.38;57.08;102254.59;4829876;29;20032;-79
2020/12/02 01:06:02;;;;;;;3.42;1.65;;;;;;;17.38;56.90;102255.47;4828870;29;20045;-79
2020/12/02 01:08:32;;;;;;;2.88;1.48;;;;;;;17.38;56.83;102259.81;4844911;29;20461;-79
2020/12/02 01:11:05;;;;;;;2.92;1.50;;;;;;;17.37;56.92;102256.31;4861352;29;20080;-79
2020/12/02 01:13:34;;;;;;;1.88;1.30;;;;;;;17.38;56.91;102257.19;4838715;29;20040;-79
2020/12/02 01:16:19;;;;;;;2.65;1.50;;;;;;;17.37;56.79;102263.25;4844736;29;20057;-79
2020/12/02 01:18:45;;;;;;;2.50;1.50;;;;;;;17.37;56.97;102266.72;4859191;29;20057;-79
2020/12/02 01:21:26;;;;;;;3.70;1.58;;;;;;;17.36;56.80;102264.97;4841491;29;20053;-80
2020/12/02 01:23:59;;;;;;;3.00;1.52;;;;;;;17.35;56.82;102260.59;4860862;29;20029;-79
2020/12/02 01:26:33;;;;;;;1.87;1.20;;;;;;;17.36;56.70;102257.16;4844928;29;20098;-79
2020/12/02 01:29:02;;;;;;;2.15;1.33;;;;;;;17.36;56.70;102262.38;4842758;29;20034;-79
2020/12/02 01:31:27;;;;;;;2.38;1.40;;;;;;;17.36;56.62;102262.38;4843802;29;20029;-79
2020/12/02 01:33:54;;;;;;;3.13;1.30;;;;;;;17.35;56.74;102260.59;4836990;29;20124;-79
2020/12/02 01:36:22;;;;;;;1.58;1.30;;;;;;;17.35;56.75;102257.13;4844576;29;20132;-79
2020/12/02 01:38:50;;;;;;;2.72;1.60;;;;;;;17.35;56.79;102262.34;4861128;29;20477;-79
2020/12/02 01:41:16;;;;;;;2.15;1.58;;;;;;;17.34;56.86;102258.88;4844827;29;20057;-79
2020/12/02 01:43:41;;;;;;;2.28;1.27;;;;;;;17.35;56.63;102257.13;4814061;29;20081;-79
2020/12/02 01:46:32;;;;;;;1.88;1.40;;;;;;;17.36;56.45;102256.31;4826763;29;20058;-79
2020/12/02 01:49:08;;;;;;;3.00;1.40;;;;;;;17.35;56.47;102255.41;4834108;29;20124;-80
2020/12/02 01:51:36;;;;;;;2.85;1.10;;;;;;;17.35;56.94;102258.00;4844533;29;20033;-80
2020/12/02 01:54:15;;;;;;;2.20;1.25;;;;;;;17.34;56.64;102260.59;4844317;29;20041;-80
2020/12/02 01:56:52;;;;;;;1.83;1.20;;;;;;;17.33;56.54;102254.50;4847715;29;20025;-80
2020/12/02 01:59:31;;;;;;;2.95;1.30;;;;;;;17.33;56.13;102254.50;4850162;29;20028;-80
2020/12/02 02:02:35;;;;;;;1.90;1.30;;;;;;;17.32;56.28;102257.97;4860224;29;20037;-80
2020/12/02 02:05:21;;;;;;;1.77;1.17;;;;;;;17.33;56.44;102251.91;4803991;29;20096;-80
2020/12/02 02:07:47;;;;;;;2.05;1.42;;;;;;;17.33;56.56;102251.91;4847537;29;20064;-80
2020/12/02 02:10:15;;;;;;;2.88;1.50;;;;;;;17.33;56.54;102248.44;4846081;29;20443;-80
2020/12/02 02:13:11;;;;;;;2.10;1.10;;;;;;;17.32;56.43;102250.16;4844631;29;20034;-80
2020/12/02 02:15:52;;;;;;;4.50;1.35;;;;;;;17.31;56.53;102242.34;4861179;29;20173;-80
2020/12/02 02:18:24;;;;;;;3.75;1.17;;;;;;;17.31;56.46;102245.84;4861165;29;20038;-80
2020/12/02 02:20:55;;;;;;;1.50;1.00;;;;;;;17.32;56.53;102246.69;4861350;29;20025;-80
2020/12/02 02:23:21;;;;;;;1.90;1.40;;;;;;;17.31;56.42;102248.44;4843521;29;20055;-80
2020/12/02 02:25:54;;;;;;;1.77;1.20;;;;;;;17.32;56.43;102237.16;4843777;29;20053;-80
2020/12/02 02:28:20;;;;;;;1.63;1.05;;;;;;;17.30;56.69;102233.66;4844067;29;20400;-80
2020/12/02 02:30:46;;;;;;;2.20;1.13;;;;;;;17.30;56.48;102238.00;4828830;29;20497;-80
2020/12/02 02:33:11;;;;;;;2.03;1.17;;;;;;;17.30;56.40;102240.59;4827872;29;20064;-80
2020/12/02 02:35:36;;;;;;;2.20;1.30;;;;;;;17.28;56.44;102241.44;4845888;29;20124;-80
2020/12/02 02:38:05;;;;;;;1.38;1.02;;;;;;;17.29;56.47;102234.53;4817170;29;20132;-80
2020/12/02 02:40:30;;;;;;;2.03;1.13;;;;;;;17.28;56.32;102238.84;4847685;29;20120;-80
2020/12/02 02:43:03;;;;;;;2.10;1.27;;;;;;;17.30;56.56;102230.19;4841258;29;20115;-80
2020/12/02 02:45:29;;;;;;;1.83;1.08;;;;;;;17.31;56.54;102231.94;4847347;29;20021;-80
2020/12/02 02:47:58;;;;;;;1.90;1.13;;;;;;;17.28;56.36;102220.63;4834999;29;20049;-80
2020/12/02 02:50:25;;;;;;;2.78;1.30;;;;;;;17.28;56.57;102210.22;4848950;29;20053;-81
2020/12/02 02:52:52;;;;;;;2.15;1.17;;;;;;;17.28;56.04;102215.41;4854411;29;20033;-81
2020/12/02 02:55:23;;;;;;;1.52;1.20;;;;;;;17.27;56.24;102211.09;4889735;29;20025;-80
2020/12/02 02:57:49;;;;;;;1.92;1.30;;;;;;;17.28;56.14;102214.56;4868491;29;20032;-80
2020/12/02 03:00:23;;;;;;;2.22;1.27;;;;;;;17.27;56.04;102207.63;4851949;29;20037;-80
2020/12/02 03:02:48;;;;;;;1.73;1.25;;;;;;;17.27;56.24;102211.09;4848365;29;20029;-80
2020/12/02 03:05:14;;;;;;;1.88;1.20;;;;;;;17.26;56.35;102204.13;4832362;29;20411;-80
2020/12/02 03:07:40;;;;;;;1.85;1.10;;;;;;;17.26;56.04;102206.72;4832685;29;20038;-80
2020/12/02 03:10:06;;;;;;;1.67;1.20;;;;;;;17.27;56.29;102207.63;4831885;29;20040;-80
2020/12/02 03:12:32;;;;;;;2.13;1.30;;;;;;;17.26;56.24;102203.25;4863869;29;20033;-80
2020/12/02 03:14:58;;;;;;;1.83;1.33;;;;;;;17.26;56.26;102203.25;4831862;29;20082;-80
2020/12/02 03:17:25;;;;;;;1.23;1.00;;;;;;;17.25;56.25;102197.19;4846980;29;20037;-80
2020/12/02 03:20:02;;;;;;;1.77;1.20;;;;;;;17.24;56.02;102202.34;4846942;29;20048;-80
2020/12/02 03:22:29;;;;;;;1.60;1.10;;;;;;;17.26;56.38;102200.66;4863231;29;20098;-80
2020/12/02 03:24:57;;;;;;;1.60;1.10;;;;;;;17.25;56.16;102185.91;4863110;29;20072;-80
2020/12/02 03:27:23;;;;;;;1.60;1.00;;;;;;;17.26;56.06;102200.66;4831102;29;20054;-80
2020/12/02 03:29:49;;;;;;;1.88;1.17;;;;;;;17.24;56.03;102198.00;4863178;29;20056;-80
2020/12/02 03:32:14;;;;;;;1.70;1.23;;;;;;;17.25;56.12;102204.97;4831386;29;20469;-80
2020/12/02 03:34:40;;;;;;;2.67;1.00;;;;;;;17.25;56.04;102204.13;4828030;29;20034;-80
2020/12/02 03:37:05;;;;;;;1.50;1.10;;;;;;;17.24;56.16;102200.63;4812852;29;20041;-80
2020/12/02 03:39:31;;;;;;;1.58;1.23;;;;;;;17.25;56.02;102204.13;4828904;29;20410;-80
2020/12/02 03:41:56;;;;;;;1.40;1.02;;;;;;;17.24;56.24;102198.00;4813390;29;20034;-80
2020/12/02 03:44:22;;;;;;;1.77;0.93;;;;;;;17.23;56.17;102196.28;4836132;29;20396;-80
2020/12/02 03:46:47;;;;;;;1.45;1.10;;;;;;;17.23;56.76;102193.69;4845942;29;20029;-80
2020/12/02 03:49:12;;;;;;;1.38;1.05;;;;;;;17.23;56.24;102196.28;4846176;29;20033;-80
2020/12/02 03:51:38;;;;;;;1.33;1.00;;;;;;;17.22;56.29;102191.06;4846257;29;20026;-80
2020/12/02 03:54:04;;;;;;;3.53;1.00;;;;;;;17.23;56.17;102188.47;4833165;29;20085;-80
2020/12/02 03:56:30;;;;;;;1.33;1.02;;;;;;;17.22;56.17;102181.53;4853011;29;20033;-80
2020/12/02 03:58:55;;;;;;;1.25;0.93;;;;;;;17.21;56.32;102177.16;4831010;29;20140;-80
2020/12/02 04:01:21;;;;;;;1.50;1.00;;;;;;;17.21;56.18;102181.50;4815633;29;20034;-80
2020/12/02 04:03:46;;;;;;;1.63;1.20;;;;;;;17.21;56.22;102176.31;4862452;29;20042;-80
2020/12/02 04:06:12;;;;;;;1.38;1.00;;;;;;;17.21;56.15;102178.91;4830580;29;20033;-80
2020/12/02 04:08:39;;;;;;;1.77;1.25;;;;;;;17.21;55.96;102176.31;4830586;29;20034;-80
2020/12/02 04:11:06;;;;;;;1.27;0.93;;;;;;;17.20;56.25;102180.66;4862402;29;20045;-80
2020/12/02 04:13:32;;;;;;;1.88;1.35;;;;;;;17.20;56.09;102166.75;4830742;29;20061;-80
2020/12/02 04:15:58;;;;;;;2.00;1.08;;;;;;;17.21;56.21;102168.50;4845378;29;20109;-80
2020/12/02 04:18:23;;;;;;;2.03;1.13;;;;;;;17.20;56.27;102169.34;4846149;29;20086;-80
2020/12/02 04:20:48;;;;;;;1.85;1.10;;;;;;;17.20;56.13;102169.34;4837028;29;20036;-80
2020/12/02 04:23:14;;;;;;;1.60;1.10;;;;;;;17.20;55.97;102171.94;4830683;29;20060;-80
2020/12/02 04:25:39;;;;;;;1.38;0.90;;;;;;;17.18;56.19;102171.03;4861753;29;20501;-80
2020/12/02 04:28:05;;;;;;;1.35;1.10;;;;;;;17.19;55.98;102172.81;4830684;29;20057;-80
2020/12/02 04:30:30;;;;;;;2.85;1.00;;;;;;;17.18;56.10;102166.75;4819468;29;20121;-80
2020/12/02 04:32:56;;;;;;;1.50;0.90;;;;;;;17.18;55.92;102171.94;4797606;29;20082;-80
2020/12/02 04:35:21;;;;;;;1.55;1.10;;;;;;;17.19;56.23;102170.22;4836812;29;20040;-80
2020/12/02 04:37:47;;;;;;;1.30;0.98;;;;;;;17.18;56.15;102161.53;4830176;29;20040;-80
2020/12/02 04:40:28;;;;;;;1.52;1.20;;;;;;;17.19;56.23;102167.59;4845527;29;20113;-80
2020/12/02 04:43:12;;;;;;;1.52;1.17;;;;;;;17.17;56.09;102151.97;4845191;29;20094;-80
2020/12/02 04:45:37;;;;;;;1.83;1.10;;;;;;;17.17;56.08;102131.16;4844846;29;20017;-80
2020/12/02 04:48:11;;;;;;;1.80;1.25;;;;;;;17.16;55.99;102116.41;4827162;29;20037;-80
2020/12/02 04:50:36;;;;;;;;;;;;;;;17.18;56.07;102116.41;4842389;29;20544;-80
2020/12/02 04:53:10;;;;;;;1.73;1.20;;;;;;;17.15;56.04;102104.25;4864122;29;19916;-80
2020/12/02 04:55:35;;;;;;;1.38;1.08;;;;;;;17.15;56.14;102112.06;4870599;29;20129;-80
2020/12/02 04:58:07;;;;;;;1.20;0.90;;;;;;;17.15;55.82;102117.25;4818588;29;20120;-79
2020/12/02 05:00:33;;;;;;;1.20;0.98;;;;;;;17.16;56.05;102118.13;4845332;29;20523;-79
2020/12/02 05:03:11;;;;;;;1.60;1.10;;;;;;;17.16;55.87;102123.31;4863452;29;20061;-79
2020/12/02 05:05:36;;;;;;;1.52;1.20;;;;;;;17.14;55.94;102117.25;4849806;29;20500;-79
2020/12/02 05:08:27;;;;;;;1.65;1.20;;;;;;;17.15;55.72;102121.59;4861623;29;20069;-79
2020/12/02 05:10:55;;;;;;;1.95;0.98;;;;;;;17.14;55.97;102127.66;4830693;29;20036;-80
2020/12/02 05:13:21;;;;;;;1.73;1.20;;;;;;;17.14;56.05;102117.25;4843618;29;20021;-79
2020/12/02 05:15:47;;;;;;;2.33;1.25;;;;;;;17.13;56.05;102115.50;4839140;29;20064;-79
2020/12/02 05:18:19;;;;;;;2.35;1.23;;;;;;;17.13;55.70;102121.56;4835202;29;20108;-79
2020/12/02 05:21:00;;;;;;;1.63;1.27;;;;;;;17.13;55.91;102116.38;4863066;29;20025;-79
2020/12/02 05:23:26;;;;;;;3.50;1.30;;;;;;;17.14;55.98;102119.88;4845520;29;20040;-80
2020/12/02 05:25:51;;;;;;;1.33;1.20;;;;;;;17.13;56.02;102110.28;4841525;29;20112;-80
2020/12/02 05:28:41;;;;;;;1.48;1.17;;;;;;;17.12;55.87;102100.75;4836694;29;20048;-80
2020/12/02 05:31:23;;;;;;;2.08;1.10;;;;;;;17.12;56.13;102101.63;4865920;29;20456;-80
2020/12/02 05:33:48;;;;;;;1.83;1.17;;;;;;;17.11;56.06;102097.25;4852565;29;20030;-80
2020/12/02 05:36:18;;;;;;;1.83;1.30;;;;;;;17.11;55.64;102093.78;4836298;29;20067;-80
2020/12/02 05:38:52;;;;;;;2.00;1.30;;;;;;;17.10;55.67;102090.34;4856095;29;20033;-81
2020/12/02 05:41:18;;;;;;;1.77;1.30;;;;;;;17.11;55.77;102084.25;4856899;29;20029;-80
2020/12/02 05:43:49;;;;;;;1.52;1.17;;;;;;;17.10;55.71;102079.06;4853947;29;20020;-82
2020/12/02 05:46:46;;;;;;;1.58;1.40;;;;;;;17.10;55.85;102084.25;4870841;29;20029;-81
2020/12/02 06:06:07;;;;;;;1.75;1.30;;;;;;;17.16;56.23;102093.00;5476052;23;20062;31
2020/12/02 06:08:34;;;;;;;8.57;3.42;;;;;;;17.17;56.32;102097.34;4823429;29;20050;-80
2020/12/02 06:11:15;;;;;;;14.38;4.30;;;;;;;17.27;56.37;102091.41;4828130;29;20096;-78
2020/12/02 06:13:52;;;;;;;11.95;4.28;;;;;;;17.42;56.56;102092.41;4828405;29;20057;-79
2020/12/02 06:16:33;;;;;;;10.55;4.18;;;;;;;17.43;56.54;102089.84;4812865;29;20373;-80
2020/12/02 06:19:07;;;;;;;11.00;3.50;;;;;;;17.43;56.68;102094.19;4830656;29;20456;-80
2020/12/02 06:21:39;;;;;;;13.63;3.42;;;;;;;17.42;56.35;102087.22;4815763;29;20053;-79
2020/12/02 06:24:05;;;;;;;5.00;2.83;;;;;;;17.42;56.50;102089.81;4829745;29;20560;-79
2020/12/02 06:26:45;;;;;;;8.30;3.20;;;;;;;17.42;56.60;102092.41;4831883;29;20031;-78
2020/12/02 06:29:41;;;;;;;11.52;3.45;;;;;;;17.41;56.50;102088.09;4822242;29;20438;-79
2020/12/02 06:32:14;;;;;;;6.40;3.20;;;;;;;17.41;56.36;102088.09;4779989;30;20047;-79
2020/12/02 06:34:41;;;;;;;8.55;3.30;;;;;;;17.42;56.46;102085.50;4775226;30;20447;-78
2020/12/02 06:37:18;;;;;;;8.43;3.08;;;;;;;17.42;56.40;102077.69;4789116;29;20039;-78
2020/12/02 06:39:58;;;;;;;5.88;2.88;;;;;;;17.42;56.49;102075.09;4807725;29;20498;-78
2020/12/02 06:42:40;;;;;;;9.80;3.10;;;;;;;17.42;56.56;102076.81;4808541;29;20501;-78
2020/12/02 06:45:24;;;;;;;6.40;3.05;;;;;;;17.42;56.62;102069.91;4808104;29;20389;-78
2020/12/02 06:47:49;;;;;;;4.13;2.63;;;;;;;17.43;56.33;102069.03;4808081;29;20031;-78
2020/12/02 06:50:34;;;;;;;4.68;2.92;;;;;;;17.42;56.26;102075.09;4810373;29;20042;-78
2020/12/02 06:53:17;;;;;;;4.90;3.00;;;;;;;17.43;56.39;102071.63;4811762;29;20042;-78
2020/12/02 06:55:45;;;;;;;6.45;2.83;;;;;;;17.42;56.26;102069.91;4809529;29;20030;-78
2020/12/02 06:58:19;;;;;;;5.28;2.80;;;;;;;17.43;56.26;102074.22;4804310;29;20036;-78
2020/12/02 07:00:50;;;;;;;6.18;2.78;;;;;;;17.43;56.27;102073.38;4809687;29;20027;-78
2020/12/02 07:03:33;;;;;;;9.57;3.05;;;;;;;17.43;56.39;102076.81;4808311;29;20026;-78
2020/12/02 07:06:36;;;;;;;4.30;2.75;;;;;;;17.43;56.35;102076.81;4811691;29;20035;-78
2020/12/02 07:09:04;;;;;;;6.33;2.67;;;;;;;17.44;56.41;102075.09;4736510;30;20147;-78
2020/12/02 07:11:32;;;;;;;4.20;2.45;;;;;;;17.43;56.33;102070.75;4735805;30;20290;-78
2020/12/02 07:14:13;;;;;;;4.82;2.80;;;;;;;17.44;56.26;102072.50;4770347;29;20100;-78
2020/12/02 07:16:39;;;;;;;5.18;3.13;;;;;;;17.44;56.20;102064.69;4807497;29;20099;-78
2020/12/02 07:19:10;;;;;;;5.82;2.78;;;;;;;17.45;56.32;102056.91;4807044;29;20038;-78
2020/12/02 07:21:52;;;;;;;6.32;2.83;;;;;;;17.44;56.03;102059.47;4807121;29;20540;-78
2020/12/02 07:24:28;;;;;;;5.53;2.67;;;;;;;17.44;55.99;102065.59;4808076;29;20031;-78
2020/12/02 07:26:55;;;;;;;6.00;2.78;;;;;;;17.43;56.04;102063.81;4807960;29;20036;-78
2020/12/02 07:29:23;;;;;;;4.43;2.55;;;;;;;17.43;56.07;102073.38;4807091;29;20066;-78
2020/12/02 07:32:11;;;;;;;4.95;2.92;;;;;;;17.41;56.24;102067.25;4807306;29;20474;-78
2020/12/02 07:34:36;;;;;;;4.57;2.90;;;;;;;17.40;56.29;102058.59;4805369;29;20039;-78
2020/12/02 07:37:12;;;;;;;4.13;2.75;;;;;;;17.40;56.18;102057.72;4788853;30;20057;-78
2020/12/02 07:40:10;;;;;;;4.78;3.00;;;;;;;17.40;56.31;102060.34;4774290;30;20035;-78
2020/12/02 07:42:42;;;;;;;4.45;2.55;;;;;;;17.39;56.23;102063.78;4779965;29;20051;-78
2020/12/02 07:45:14;;;;;;;5.88;2.80;;;;;;;17.38;56.32;102062.91;4790889;29;20031;-79
2020/12/02 07:47:42;;;;;;;5.45;3.15;;;;;;;17.39;56.14;102061.16;4807474;29;20027;-79
2020/12/02 07:50:28;;;;;;;4.93;2.58;;;;;;;17.38;56.11;102056.84;4792179;29;20038;-79
2020/12/02 07:52:59;;;;;;;4.68;2.97;;;;;;;17.36;56.28;102054.22;4803782;29;20075;-78
2020/12/02 07:55:36;;;;;;;3.95;2.70;;;;;;;17.38;56.31;102047.28;4804932;29;20126;-78
2020/12/02 07:58:01;;;;;;;4.63;2.75;;;;;;;17.38;56.23;102055.09;4790526;29;20458;-78
2020/12/02 08:00:39;;;;;;;3.80;2.60;;;;;;;17.39;56.15;102048.16;4812802;29;20101;-77
2020/12/02 08:03:05;;;;;;;3.55;2.67;;;;;;;17.40;56.13;102052.53;4811827;29;20030;-78
2020/12/02 08:05:55;;;;;;;3.90;2.67;;;;;;;17.40;56.00;102044.72;4804274;29;20075;-78
2020/12/02 08:08:21;;;;;;;3.47;2.58;;;;;;;17.42;55.96;102051.69;4804372;29;20047;-78
2020/12/02 08:10:46;;;;;;;3.85;2.50;;;;;;;17.43;55.95;102037.78;4802821;29;20031;-77
2020/12/02 08:13:19;;;;;;;3.97;2.63;;;;;;;17.44;55.90;102039.56;4790366;29;20092;-77
2020/12/02 08:15:50;;;;;;;4.95;2.97;;;;;;;17.44;55.87;102043.88;4803657;29;20031;-78
2020/12/02 08:18:19;;;;;;;4.43;2.95;;;;;;;17.44;56.00;102034.34;4800169;29;20031;-78
2020/12/02 08:20:45;;;;;;;4.38;2.67;;;;;;;17.44;56.07;102033.47;4802362;29;20023;-78
2020/12/02 08:23:15;;;;;;;3.35;2.30;;;;;;;17.45;55.89;102035.22;4775636;29;20394;-77
2020/12/02 08:26:16;;;;;;;3.85;2.55;;;;;;;17.46;55.97;102035.25;4803147;29;20124;-77
2020/12/02 08:28:43;;;;;;;3.45;2.65;;;;;;;17.45;55.93;102030.88;4803641;29;20026;-77
2020/12/02 08:31:17;;;;;;;2.97;2.47;;;;;;;17.47;55.87;102031.78;4799410;29;20034;-78
2020/12/02 08:34:08;;;;;;;4.22;2.83;;;;;;;17.47;55.80;102030.91;4801000;29;20067;-77
2020/12/02 08:36:34;;;;;;;4.20;2.78;;;;;;;17.48;55.75;102027.44;4804904;29;20030;-77
2020/12/02 08:38:59;;;;;;;4.13;2.58;;;;;;;17.48;55.73;102019.63;4790037;29;20393;-77
2020/12/02 08:41:24;;;;;;;4.32;2.38;;;;;;;17.50;55.77;102024.84;4812665;29;20035;-78
2020/12/02 08:43:50;;;;;;;3.28;2.50;;;;;;;17.48;55.78;102020.53;4805450;29;20035;-78
2020/12/02 08:46:26;;;;;;;5.35;2.95;;;;;;;17.48;55.81;102020.53;4794618;29;20034;-78
2020/12/02 08:48:59;;;;;;;3.70;2.60;;;;;;;17.51;55.81;102018.78;4797828;29;20035;-79
2020/12/02 08:51:25;;;;;;;4.40;2.80;;;;;;;17.53;55.53;102012.75;4809092;29;20422;-78
2020/12/02 08:53:52;;;;;;;2.75;2.35;;;;;;;17.56;55.65;102012.78;4806347;29;20398;-78
2020/12/02 08:56:33;;;;;;;5.85;2.40;;;;;;;17.63;55.96;102013.69;4775968;29;20551;-77
2020/12/02 08:58:59;;;;;;;4.85;2.38;;;;;;;17.67;57.40;102018.06;4806525;29;20026;-79
2020/12/02 09:01:25;;;;;;;6.15;2.80;;;;;;;17.67;57.41;102011.13;4807489;29;20039;-78
2020/12/02 09:03:50;;;;;;;3.90;3.00;;;;;;;17.64;57.12;102011.13;4812049;29;20075;-78
2020/12/02 09:06:19;;;;;;;4.72;2.67;;;;;;;17.61;56.96;102010.19;4793563;29;20114;-78
2020/12/02 09:08:45;;;;;;;3.70;2.70;;;;;;;17.57;56.66;102003.22;4811001;29;20035;-78
2020/12/02 09:11:15;;;;;;;4.20;2.72;;;;;;;17.55;56.63;102004.94;4806850;29;20038;-78
2020/12/02 09:13:41;;;;;;;3.78;2.80;;;;;;;17.54;56.48;102004.06;4813689;29;20427;-77
2020/12/02 09:16:06;;;;;;;3.47;2.67;;;;;;;17.52;56.65;101997.97;4805405;29;20046;-77
2020/12/02 09:18:32;;;;;;;3.17;2.67;;;;;;;17.51;56.50;101996.25;4807408;29;20027;-78
2020/12/02 09:20:57;;;;;;;3.72;2.60;;;;;;;17.52;56.42;102002.31;4804392;29;20436;-77
2020/12/02 09:23:22;;;;;;;3.50;2.70;;;;;;;17.51;56.65;101995.34;4808726;29;20034;-77
2020/12/02 09:25:48;;;;;;;4.85;2.47;;;;;;;17.50;56.59;101991.03;4803711;29;20030;-77
2020/12/02 09:28:13;;;;;;;3.45;2.50;;;;;;;17.51;56.60;101982.34;4800838;29;20092;-77
2020/12/02 09:30:38;;;;;;;3.33;2.60;;;;;;;17.50;56.71;101976.25;4772400;29;20042;-77
2020/12/02 09:33:04;;;;;;;3.13;2.50;;;;;;;17.51;56.75;101978.03;4805016;29;20030;-77
2020/12/02 09:35:29;;;;;;;3.33;2.35;;;;;;;17.51;56.91;101978.03;4816143;29;20386;-79
2020/12/02 09:37:55;;;;;;;3.40;2.75;;;;;;;17.52;56.73;101982.38;4801351;29;20513;-79
2020/12/02 09:40:21;;;;;;;3.85;2.60;;;;;;;17.52;57.02;101973.69;4804458;29;20088;-78
2020/12/02 09:43:14;;;;;;;3.05;2.50;;;;;;;17.53;56.86;101972.81;4802993;29;20451;-79
2020/12/02 09:45:51;;;;;;;4.15;2.92;;;;;;;17.54;56.72;101966.78;4798533;29;20093;-79
2020/12/02 09:48:23;;;;;;;2.95;2.40;;;;;;;17.56;56.85;101963.31;4806695;29;20034;-79
2020/12/02 09:50:49;;;;;;;3.25;2.60;;;;;;;17.54;56.85;101959.81;4801680;29;20511;-79
2020/12/02 09:53:18;;;;;;;3.60;2.65;;;;;;;17.57;56.76;101964.19;4807096;29;20054;-79
2020/12/02 09:55:43;;;;;;;3.25;2.50;;;;;;;17.54;56.60;101957.22;4807514;29;20035;-79
2020/12/02 09:58:11;;;;;;;3.22;2.47;;;;;;;17.55;56.70;101960.69;4822726;29;20041;-80
2020/12/02 10:00:36;;;;;;;2.88;2.40;;;;;;;17.55;56.49;101953.78;4788714;29;20050;-79
2020/12/02 10:03:34;;;;;;;2.83;2.40;;;;;;;17.55;56.88;101958.09;4806678;29;20030;-79
2020/12/02 10:06:25;;;;;;;3.00;2.25;;;;;;;17.56;56.96;101963.31;4808054;29;20386;-77
2020/12/02 10:09:21;;;;;;;3.50;2.38;;;;;;;17.57;57.06;101953.78;4809761;29;20084;-79
2020/12/02 10:11:46;;;;;;;3.67;2.80;;;;;;;17.57;57.04;101948.56;4796122;29;20042;-78
2020/12/02 10:14:39;;;;;;;5.75;2.70;;;;;;;17.58;57.02;101950.31;4806446;29;21936;-78
2020/12/02 10:17:40;;;;;;;3.22;2.60;;;;;;;17.59;56.94;101944.25;4808739;29;20461;-78
2020/12/02 10:20:15;;;;;;;3.38;2.17;;;;;;;17.57;57.03;101949.47;4789023;29;20100;-77
2020/12/02 10:23:16;;;;;;;3.75;2.55;;;;;;;17.58;56.94;101937.31;4808587;29;20485;-78
2020/12/02 10:26:02;;;;;;;3.65;2.60;;;;;;;17.59;56.98;101928.63;4771229;30;20067;-79
2020/12/02 10:28:41;;;;;;;3.30;2.50;;;;;;;17.58;56.96;101925.16;4802799;29;20064;-79
2020/12/02 10:31:06;;;;;;;2.40;2.13;;;;;;;17.60;57.04;101917.38;4806752;29;20046;-79
2020/12/02 10:33:41;;;;;;;2.53;2.30;;;;;;;17.59;56.98;101911.28;4807649;29;20019;-79
2020/12/02 10:36:06;;;;;;;3.08;2.22;;;;;;;17.60;57.10;101910.44;4807628;29;20088;-79
2020/12/02 10:38:43;;;;;;;2.78;2.38;;;;;;;17.61;57.00;101906.09;4807799;29;20062;-78
2020/12/02 10:41:16;;;;;;;3.15;2.67;;;;;;;17.61;56.84;101895.69;4808721;29;20034;-78
2020/12/02 10:44:20;;;;;;;2.80;2.35;;;;;;;17.61;56.98;101893.94;4808534;29;20041;-78
2020/12/02 10:47:15;;;;;;;3.22;2.40;;;;;;;17.62;57.09;101880.06;4793806;29;20212;-78
2020/12/02 10:49:44;;;;;;;3.47;2.35;;;;;;;17.62;57.03;101881.81;4808793;29;20035;-79
2020/12/02 10:52:13;;;;;;;2.85;2.35;;;;;;;17.63;56.90;101883.53;4810132;29;20030;-79
2020/12/02 10:54:38;;;;;;;2.50;2.30;;;;;;;17.64;57.12;101877.50;4807259;29;20043;-79
2020/12/02 10:57:12;;;;;;;2.83;2.22;;;;;;;17.64;56.93;101867.94;4806110;29;20039;-79
2020/12/02 10:59:38;;;;;;;3.13;2.58;;;;;;;17.64;57.12;101854.06;4792192;29;20800;-77
2020/12/02 11:02:11;;;;;;;2.88;2.22;;;;;;;17.64;56.89;101849.72;4807152;29;20042;-78
2020/12/02 11:04:36;;;;;;;3.47;2.50;;;;;;;17.64;57.03;101846.25;4807280;29;20031;-78
2020/12/02 11:07:24;;;;;;;2.92;2.58;;;;;;;17.65;56.76;101850.59;4803730;29;20055;-79
2020/12/02 11:10:10;;;;;;;2.65;2.35;;;;;;;17.66;57.07;101840.19;4803452;29;20089;-78
2020/12/02 11:12:44;;;;;;;3.22;2.67;;;;;;;17.67;56.91;101831.50;4790203;29;20402;-78
2020/12/02 11:15:16;;;;;;;3.00;2.40;;;;;;;17.68;56.82;101832.38;4804269;29;20035;-78
2020/12/02 11:18:19;;;;;;;2.72;2.40;;;;;;;17.68;57.01;101825.47;4790321;29;20062;-78
2020/12/02 11:21:05;;;;;;;3.50;2.40;;;;;;;17.66;56.96;101819.38;4790234;29;20445;-78
2020/12/02 11:23:55;;;;;;;2.72;2.10;;;;;;;17.68;57.00;101815.03;4804271;29;20035;-78
2020/12/02 11:26:25;;;;;;;3.72;2.45;;;;;;;17.67;56.72;101800.28;4803769;29;20045;-79
2020/12/02 11:28:53;;;;;;;2.83;2.25;;;;;;;17.68;57.05;101799.44;4790321;29;20053;-78
2020/12/02 11:31:51;;;;;;;3.38;2.70;;;;;;;17.69;56.84;101797.69;4792950;29;20027;-79
2020/12/02 11:34:35;;;;;;;2.30;2.05;;;;;;;17.69;56.93;101789.88;4780896;30;20035;-79
2020/12/02 11:37:08;;;;;;;4.43;2.35;;;;;;;17.68;57.15;101789.00;4782969;29;20064;-79
2020/12/02 11:39:33;;;;;;;;;;;;;;;17.68;56.93;101782.91;4792404;29;20027;-79
2020/12/02 11:42:27;;;;;;;2.95;2.40;;;;;;;17.69;56.93;101789.88;4790306;30;19913;-78
2020/12/02 11:45:00;;;;;;;2.83;2.40;;;;;;;17.67;57.21;101784.66;4798043;29;20042;-78
2020/12/02 11:47:44;;;;;;;4.38;2.30;;;;;;;17.67;57.39;101778.59;4797343;29;20035;-77
2020/12/02 11:50:38;;;;;;;2.42;2.22;;;;;;;17.65;57.29;101770.75;4789162;29;20039;-76
2020/12/02 11:53:26;;;;;;;;;;;;;;;17.64;57.32;101766.44;4786610;30;20585;-76
2020/12/02 11:55:52;;;;;;;2.80;2.40;;;;;;;17.64;57.04;101758.63;4787764;29;19913;-76
2020/12/02 11:58:18;;;;;;;2.85;2.40;;;;;;;17.63;57.20;101761.22;4798718;29;20123;-78
2020/12/02 12:00:43;;;;;;;3.15;2.50;;;;;;;17.63;57.18;101751.66;4783432;30;20147;-76
2020/12/02 12:03:19;;;;;;;3.03;2.35;;;;;;;17.63;57.40;101750.78;4803264;29;20056;-76
2020/12/02 12:06:03;;;;;;;2.65;2.38;;;;;;;17.61;57.53;101749.91;4789474;29;20027;-77
2020/12/02 12:08:39;;;;;;;3.40;2.53;;;;;;;17.60;57.82;101738.66;4802604;29;20086;-76